Time;durP1;ratioP1;P1;durP2;ratioP2;P2;SDS_P1;SDS_P2;PMS_P1;PMS_P2;Temp;Humidity;BMP_temperature;BMP_pressure;BME280_temperature;BME280_humidity;BME280_pressure;Samples;Min_cycle;Max_cycle;Signal;HPM_P1;HPM_P2
2023/09/26 00:01:45;;;;;;;6.57;2.67;;;13.20;99.90;;;;;;5088649;28;20170;-50
2023/09/26 00:04:11;;;;;;;3.90;2.30;;;13.20;99.90;;;;;;5088674;28;20162;-50
2023/09/26 00:06:37;;;;;;;3.17;2.80;;;13.10;99.90;;;;;;5088569;28;20213;-50
2023/09/26 00:09:05;;;;;;;2.42;2.22;;;13.20;99.90;;;;;;5088726;28;20158;-50
2023/09/26 00:11:34;;;;;;;3.08;2.45;;;;;;;;;;5087556;28;20261;-50
2023/09/26 00:13:59;;;;;;;4.05;2.70;;;13.20;99.90;;;;;;5088914;28;20493;-50
2023/09/26 00:16:25;;;;;;;6.10;3.10;;;13.10;99.90;;;;;;5088451;28;20169;-50
2023/09/26 00:18:51;;;;;;;3.05;2.47;;;13.10;99.90;;;;;;5088448;28;20165;-50
2023/09/26 00:21:16;;;;;;;3.42;3.13;;;13.10;99.90;;;;;;5088420;28;20172;-50
2023/09/26 00:23:42;;;;;;;8.70;2.78;;;13.10;99.90;;;;;;5088296;28;20161;-50
2023/09/26 00:26:08;;;;;;;3.20;2.33;;;13.00;99.90;;;;;;5088266;28;20201;-50
2023/09/26 00:28:34;;;;;;;3.30;2.53;;;12.90;99.90;;;;;;5088432;28;20282;-50
2023/09/26 00:31:03;;;;;;;3.28;2.55;;;13.00;99.90;;;;;;5088641;28;20177;-50
2023/09/26 00:33:29;;;;;;;3.72;2.53;;;13.00;99.90;;;;;;5088872;28;20170;-50
2023/09/26 00:35:55;;;;;;;5.30;2.65;;;13.00;99.90;;;;;;5088462;28;20690;-50
2023/09/26 00:38:21;;;;;;;4.03;2.40;;;13.00;99.90;;;;;;5086946;28;20166;-50
2023/09/26 00:40:46;;;;;;;3.47;2.88;;;13.00;99.90;;;;;;5088074;28;20173;-50
2023/09/26 00:43:22;;;;;;;7.57;3.15;;;13.10;99.90;;;;;;5088017;28;20214;-50
2023/09/26 00:45:53;;;;;;;3.60;2.78;;;13.10;99.90;;;;;;5097012;28;20227;-50
2023/09/26 00:48:19;;;;;;;4.63;2.38;;;13.00;99.90;;;;;;5108139;28;20169;-50
2023/09/26 00:50:46;;;;;;;3.58;2.78;;;13.00;99.90;;;;;;5108162;28;20176;-50
2023/09/26 00:53:11;;;;;;;4.85;2.90;;;13.00;99.90;;;;;;5108346;28;20196;-51
2023/09/26 00:55:38;;;;;;;4.80;2.90;;;13.00;99.90;;;;;;5108313;28;20211;-51
2023/09/26 00:58:04;;;;;;;6.95;2.70;;;12.90;99.90;;;;;;5096851;28;20554;-51
2023/09/26 01:00:30;;;;;;;4.47;2.97;;;12.90;99.90;;;;;;5095115;28;20541;-51
2023/09/26 01:02:57;;;;;;;4.07;2.70;;;12.90;99.90;;;;;;5094381;28;20262;-51
2023/09/26 01:05:23;;;;;;;4.20;2.75;;;12.90;99.90;;;;;;5094539;28;20225;-50
2023/09/26 01:07:50;;;;;;;4.15;3.65;;;12.90;99.90;;;;;;5094207;28;20255;-51
2023/09/26 01:10:16;;;;;;;6.40;4.43;;;12.90;99.90;;;;;;5094146;28;20205;-50
2023/09/26 01:12:42;;;;;;;7.05;5.18;;;13.00;99.90;;;;;;5094167;28;20630;-51
2023/09/26 01:15:08;;;;;;;7.80;4.90;;;13.00;99.90;;;;;;5094333;28;20173;-51
2023/09/26 01:17:34;;;;;;;5.85;4.68;;;13.00;99.90;;;;;;5094282;28;20165;-50
2023/09/26 01:19:59;;;;;;;5.18;3.63;;;13.00;99.90;;;;;;5094446;28;20712;-50
2023/09/26 01:22:27;;;;;;;6.32;3.75;;;12.90;99.90;;;;;;5093975;28;20161;-50
2023/09/26 01:24:52;;;;;;;4.20;3.10;;;12.90;99.90;;;;;;5093781;28;20223;-50
2023/09/26 01:27:18;;;;;;;6.55;3.95;;;12.80;99.90;;;;;;5093909;28;20173;-51
2023/09/26 01:29:47;;;;;;;4.18;3.63;;;12.80;99.90;;;;;;5093818;28;20183;-51
2023/09/26 01:32:13;;;;;;;4.10;3.45;;;12.80;99.90;;;;;;5093759;28;20579;-50
2023/09/26 01:34:38;;;;;;;6.18;4.00;;;12.80;99.90;;;;;;5093693;28;20208;-51
2023/09/26 01:37:06;;;;;;;5.57;3.00;;;12.70;99.90;;;;;;5093756;28;20205;-50
2023/09/26 01:39:32;;;;;;;4.10;3.20;;;12.70;99.90;;;;;;5093630;28;20165;-51
2023/09/26 01:41:58;;;;;;;6.40;3.75;;;12.70;99.90;;;;;;5094016;28;20174;-50
2023/09/26 01:44:23;;;;;;;6.50;3.70;;;12.70;99.90;;;;;;5093548;28;20210;-51
2023/09/26 01:46:49;;;;;;;9.77;3.20;;;12.70;99.90;;;;;;5093359;28;20688;-50
2023/09/26 01:49:14;;;;;;;4.97;3.50;;;12.60;99.90;;;;;;5093491;28;20621;-51
2023/09/26 01:51:40;;;;;;;7.47;4.13;;;;;;;;;;5093459;28;20191;-50
2023/09/26 01:54:06;;;;;;;5.05;4.28;;;12.60;99.90;;;;;;5093572;28;20191;-51
2023/09/26 01:56:32;;;;;;;7.93;4.10;;;12.60;99.90;;;;;;5093271;28;20169;-51
2023/09/26 01:58:58;;;;;;;9.68;4.53;;;12.60;99.90;;;;;;5093914;28;20190;-50
2023/09/26 02:01:24;;;;;;;9.60;4.82;;;12.60;99.90;;;;;;5093202;28;20512;-51
2023/09/26 02:03:49;;;;;;;7.22;4.68;;;12.50;99.90;;;;;;5093152;28;20255;-50
2023/09/26 02:06:15;;;;;;;4.85;3.30;;;12.40;99.90;;;;;;5093030;28;20201;-51
2023/09/26 02:08:40;;;;;;;5.35;4.78;;;12.30;99.90;;;;;;5091958;28;20777;-50
2023/09/26 02:11:06;;;;;;;5.88;4.30;;;12.40;99.90;;;;;;5093041;28;20223;-51
2023/09/26 02:13:32;;;;;;;7.00;4.03;;;;;;;;;;5092977;28;20169;-51
2023/09/26 02:15:58;;;;;;;4.55;3.63;;;12.30;99.90;;;;;;5093334;28;20162;-50
2023/09/26 02:18:24;;;;;;;6.30;4.03;;;12.20;99.90;;;;;;5093119;28;20173;-51
2023/09/26 02:20:50;;;;;;;6.50;4.43;;;12.30;99.90;;;;;;5093126;28;20181;-51
2023/09/26 02:23:15;;;;;;;7.38;4.90;;;12.30;99.90;;;;;;5092803;28;20173;-51
2023/09/26 02:25:49;;;;;;;7.47;4.28;;;12.30;99.90;;;;;;5092640;28;20197;-51
2023/09/26 02:28:14;;;;;;;7.32;4.80;;;12.40;99.90;;;;;;5092997;28;20206;-50
2023/09/26 02:30:41;;;;;;;5.50;4.50;;;12.40;99.90;;;;;;5092720;28;20200;-51
2023/09/26 02:33:07;;;;;;;7.80;4.47;;;12.20;99.90;;;;;;5092557;28;20173;-51
2023/09/26 02:35:32;;;;;;;5.25;4.32;;;12.20;99.90;;;;;;5092657;28;20161;-51
2023/09/26 02:37:58;;;;;;;8.38;5.05;;;12.20;99.90;;;;;;5092997;28;20187;-51
2023/09/26 02:40:23;;;;;;;6.38;4.72;;;12.20;99.90;;;;;;5092334;28;20165;-50
2023/09/26 02:42:50;;;;;;;7.35;5.45;;;12.20;99.90;;;;;;5092815;28;20636;-51
2023/09/26 02:45:16;;;;;;;7.55;5.25;;;;;;;;;;5092403;28;20221;-50
2023/09/26 02:47:42;;;;;;;9.02;4.78;;;12.20;99.90;;;;;;5092502;28;20256;-50
2023/09/26 02:50:09;;;;;;;9.02;5.75;;;12.20;99.90;;;;;;5092324;28;20609;-50
2023/09/26 02:52:36;;;;;;;11.35;5.47;;;12.20;99.90;;;;;;5092230;28;20592;-51
2023/09/26 02:55:02;;;;;;;9.98;5.55;;;12.20;99.90;;;;;;5092245;28;20203;-50
2023/09/26 02:57:28;;;;;;;7.18;5.22;;;12.20;99.90;;;;;;5092715;28;20188;-50
2023/09/26 02:59:53;;;;;;;7.65;5.82;;;12.20;99.90;;;;;;5092499;28;20286;-50
2023/09/26 03:02:19;;;;;;;8.50;5.68;;;12.20;99.90;;;;;;5092128;28;20616;-50
2023/09/26 03:04:50;;;;;;;7.18;5.65;;;12.20;99.90;;;;;;5088583;28;20241;-50
2023/09/26 03:07:16;;;;;;;11.55;5.95;;;12.20;99.90;;;;;;5071539;28;20261;-50
2023/09/26 03:09:42;;;;;;;13.00;6.85;;;12.20;99.90;;;;;;5053794;28;20254;-51
2023/09/26 03:12:08;;;;;;;11.88;6.43;;;12.10;99.90;;;;;;5071724;28;20170;-50
2023/09/26 03:14:33;;;;;;;9.02;6.60;;;12.10;99.90;;;;;;5072008;28;20283;-50
2023/09/26 03:16:59;;;;;;;7.32;6.15;;;12.10;99.90;;;;;;5072031;28;20196;-51
2023/09/26 03:19:25;;;;;;;10.45;6.93;;;12.20;99.90;;;;;;5053636;28;20247;-50
2023/09/26 03:21:50;;;;;;;10.02;7.05;;;12.10;99.90;;;;;;5053377;28;20201;-51
2023/09/26 03:24:17;;;;;;;11.18;7.80;;;12.20;99.90;;;;;;5071508;28;20197;-50
2023/09/26 03:26:42;;;;;;;10.27;7.57;;;12.20;99.90;;;;;;5071479;28;20597;-50
2023/09/26 03:29:08;;;;;;;11.52;8.23;;;;;;;;;;5071509;28;20158;-50
2023/09/26 03:31:34;;;;;;;12.18;7.57;;;12.30;99.90;;;;;;5071440;28;20162;-50
2023/09/26 03:34:00;;;;;;;13.18;7.88;;;12.20;99.90;;;;;;5072091;28;20166;-50
2023/09/26 03:36:25;;;;;;;17.55;8.38;;;12.20;99.90;;;;;;5071967;28;20173;-50
2023/09/26 03:38:51;;;;;;;11.55;8.52;;;12.20;99.90;;;;;;5071441;28;20162;-50
2023/09/26 03:41:17;;;;;;;10.68;7.90;;;12.20;99.90;;;;;;5071352;28;20166;-50
2023/09/26 03:43:42;;;;;;;10.18;8.43;;;12.20;99.90;;;;;;5071323;28;20180;-50
2023/09/26 03:46:08;;;;;;;11.50;8.40;;;12.20;99.90;;;;;;5071097;28;20275;-50
2023/09/26 03:48:35;;;;;;;9.93;7.40;;;12.20;99.90;;;;;;5071376;28;20173;-50
2023/09/26 03:51:14;;;;;;;9.70;7.82;;;12.20;99.90;;;;;;5071436;28;20180;-50
2023/09/26 03:53:41;;;;;;;11.05;7.85;;;12.20;99.90;;;;;;5071309;28;20678;-50
2023/09/26 03:56:07;;;;;;;10.73;8.65;;;12.20;99.90;;;;;;5071364;28;20589;-50
2023/09/26 03:58:34;;;;;;;10.82;8.25;;;12.20;99.90;;;;;;5071239;28;20158;-50
2023/09/26 04:01:14;;;;;;;12.00;7.53;;;12.20;99.90;;;;;;5071636;28;20257;-50
2023/09/26 04:03:42;;;;;;;10.38;7.80;;;12.10;99.90;;;;;;5071460;28;20302;-50
2023/09/26 04:06:09;;;;;;;10.07;7.88;;;;;;;;;;5071126;28;20323;-50
2023/09/26 04:08:35;;;;;;;12.38;7.88;;;12.10;99.90;;;;;;5071328;28;20253;-50
2023/09/26 04:11:01;;;;;;;8.45;7.55;;;;;;;;;;5071032;28;20250;-50
2023/09/26 04:13:27;;;;;;;7.97;6.88;;;;;;;;;;5071706;28;20205;-50
2023/09/26 04:15:53;;;;;;;10.38;6.97;;;12.00;99.90;;;;;;5071074;28;20202;-50
2023/09/26 04:18:19;;;;;;;8.93;7.40;;;12.00;99.90;;;;;;5070980;28;20166;-50
2023/09/26 04:20:45;;;;;;;10.45;7.07;;;12.00;99.90;;;;;;5070965;28;20176;-50
2023/09/26 04:23:11;;;;;;;10.77;7.65;;;12.10;99.90;;;;;;5070549;28;20241;-51
2023/09/26 04:25:37;;;;;;;9.68;7.13;;;12.00;99.90;;;;;;5070825;28;20206;-51
2023/09/26 04:28:03;;;;;;;10.45;7.78;;;12.00;99.90;;;;;;5070885;28;20167;-51
2023/09/26 04:30:32;;;;;;;14.30;7.53;;;12.00;99.90;;;;;;5071541;28;20166;-50
2023/09/26 04:32:58;;;;;;;8.95;7.70;;;12.00;99.90;;;;;;5073363;28;20166;-50
2023/09/26 04:35:24;;;;;;;10.48;7.68;;;12.00;99.90;;;;;;5074395;28;20249;-50
2023/09/26 04:37:49;;;;;;;9.73;7.72;;;12.00;99.90;;;;;;5074426;28;20206;-50
2023/09/26 04:40:16;;;;;;;11.13;8.30;;;12.00;99.90;;;;;;5056766;28;20193;-50
2023/09/26 04:42:44;;;;;;;9.15;7.22;;;12.00;99.90;;;;;;5074235;28;20212;-51
2023/09/26 04:45:10;;;;;;;13.07;7.78;;;12.00;99.90;;;;;;5074206;28;20279;-50
2023/09/26 04:47:36;;;;;;;9.02;7.40;;;12.00;99.90;;;;;;5074328;28;20166;-50
2023/09/26 04:50:02;;;;;;;9.20;6.93;;;12.00;99.90;;;;;;5074206;28;20509;-50
2023/09/26 04:52:28;;;;;;;11.45;7.30;;;12.00;99.90;;;;;;5074999;28;20209;-51
2023/09/26 04:54:54;;;;;;;8.43;7.10;;;12.00;99.90;;;;;;5074161;28;20198;-50
2023/09/26 04:57:20;;;;;;;8.63;7.72;;;12.00;99.90;;;;;;5074271;28;20713;-50
2023/09/26 04:59:45;;;;;;;8.75;7.18;;;12.00;99.90;;;;;;5073895;28;20215;-50
2023/09/26 05:02:11;;;;;;;10.10;7.18;;;12.00;99.90;;;;;;5074093;28;20193;-50
2023/09/26 05:04:37;;;;;;;9.68;6.90;;;11.90;99.90;;;;;;5073955;28;20255;-50
2023/09/26 05:07:02;;;;;;;8.98;7.28;;;11.90;99.90;;;;;;5074013;28;20206;-50
2023/09/26 05:09:28;;;;;;;9.55;8.00;;;11.90;99.90;;;;;;5074456;28;20158;-51
2023/09/26 05:11:53;;;;;;;12.07;8.10;;;11.90;99.90;;;;;;5073803;28;20170;-50
2023/09/26 05:14:19;;;;;;;10.07;7.72;;;11.90;99.90;;;;;;5074090;28;20227;-50
2023/09/26 05:16:45;;;;;;;9.27;8.25;;;11.80;99.90;;;;;;5073819;28;20504;-51
2023/09/26 05:19:10;;;;;;;9.25;7.53;;;11.80;99.90;;;;;;5073824;28;20595;-51
2023/09/26 05:21:36;;;;;;;10.85;8.60;;;11.90;99.90;;;;;;5055786;28;20219;-51
2023/09/26 05:24:01;;;;;;;9.80;8.02;;;11.80;99.90;;;;;;5073718;28;20187;-50
2023/09/26 05:26:27;;;;;;;11.30;7.28;;;11.80;99.90;;;;;;5073954;28;20240;-51
2023/09/26 05:28:53;;;;;;;8.82;7.07;;;;;;;;;;5073357;28;20166;-51
2023/09/26 05:31:18;;;;;;;12.82;7.88;;;11.60;99.90;;;;;;5055581;28;20691;-50
2023/09/26 05:33:44;;;;;;;11.57;8.05;;;11.70;99.90;;;;;;5073466;28;20677;-50
2023/09/26 05:36:10;;;;;;;9.07;7.65;;;11.70;99.90;;;;;;5073519;28;20668;-50
2023/09/26 05:38:35;;;;;;;10.50;7.05;;;11.70;99.90;;;;;;5073808;28;20166;-51
2023/09/26 05:41:01;;;;;;;9.90;6.90;;;11.60;99.90;;;;;;5073444;28;20166;-50
2023/09/26 05:43:28;;;;;;;8.63;7.13;;;11.60;99.90;;;;;;5056146;28;20170;-50
2023/09/26 05:45:54;;;;;;;10.93;8.25;;;;;;;;;;5073156;28;20229;-50
2023/09/26 05:48:20;;;;;;;9.57;7.70;;;11.60;99.90;;;;;;5073345;28;20174;-51
2023/09/26 05:50:46;;;;;;;10.38;7.50;;;11.80;99.90;;;;;;5055573;28;20235;-50
2023/09/26 05:53:12;;;;;;;12.48;7.05;;;11.80;99.90;;;;;;5073157;28;20166;-50
2023/09/26 05:55:38;;;;;;;11.98;6.80;;;11.80;99.90;;;;;;5073324;28;20192;-51
2023/09/26 05:58:03;;;;;;;11.23;6.63;;;11.80;99.90;;;;;;5073037;28;20253;-51
2023/09/26 06:00:29;;;;;;;9.80;7.47;;;11.90;99.90;;;;;;5073462;28;20195;-51
2023/09/26 06:02:54;;;;;;;9.93;7.72;;;12.00;99.90;;;;;;5073251;28;20227;-50
2023/09/26 06:05:20;;;;;;;11.20;7.60;;;12.00;99.90;;;;;;5072731;28;20206;-50
2023/09/26 06:07:46;;;;;;;9.40;8.13;;;12.10;99.90;;;;;;5072876;28;20254;-50
2023/09/26 06:10:11;;;;;;;10.95;7.35;;;12.10;99.90;;;;;;5073071;28;20253;-50
2023/09/26 06:12:38;;;;;;;12.07;8.18;;;12.10;99.90;;;;;;5072799;28;20582;-51
2023/09/26 06:15:05;;;;;;;12.10;7.70;;;12.20;99.90;;;;;;5072836;28;20162;-50
2023/09/26 06:17:31;;;;;;;8.27;7.13;;;12.20;99.90;;;;;;5072662;28;20173;-50
2023/09/26 06:19:56;;;;;;;10.00;7.88;;;12.20;99.90;;;;;;5073161;28;20166;-50
2023/09/26 06:22:22;;;;;;;9.27;7.18;;;12.30;99.90;;;;;;5072664;28;20249;-50
2023/09/26 06:24:48;;;;;;;12.85;7.13;;;12.30;99.90;;;;;;5072633;28;20196;-50
2023/09/26 06:27:13;;;;;;;10.80;7.35;;;12.30;99.90;;;;;;5072439;28;20206;-50
2023/09/26 06:29:39;;;;;;;8.48;6.95;;;12.40;99.90;;;;;;5072390;28;20165;-51
2023/09/26 06:32:05;;;;;;;13.13;7.35;;;12.40;99.90;;;;;;5072359;28;20248;-50
2023/09/26 06:34:31;;;;;;;10.55;6.82;;;;;;;;;;5072324;28;20201;-50
2023/09/26 06:36:57;;;;;;;8.80;6.70;;;12.50;99.90;;;;;;5072982;28;20622;-50
2023/09/26 06:39:23;;;;;;;8.80;6.78;;;12.60;99.90;;;;;;5072218;28;20197;-50
2023/09/26 06:41:48;;;;;;;10.40;6.38;;;12.60;99.90;;;;;;5072236;28;20546;-50
2023/09/26 06:44:14;;;;;;;8.45;6.72;;;;;;;;;;5072099;28;20502;-51
2023/09/26 06:46:40;;;;;;;10.20;6.43;;;12.60;99.90;;;;;;5071890;28;20260;-50
2023/09/26 06:49:06;;;;;;;10.35;6.82;;;12.70;99.90;;;;;;5072051;28;20219;-50
2023/09/26 06:51:33;;;;;;;13.18;6.82;;;12.80;99.90;;;;;;5072004;28;20268;-50
2023/09/26 06:54:01;;;;;;;8.13;6.15;;;12.80;99.90;;;;;;5072690;28;20263;-50
2023/09/26 06:56:27;;;;;;;10.68;7.07;;;12.90;99.90;;;;;;5071736;28;20626;-50
2023/09/26 06:58:53;;;;;;;8.73;6.85;;;13.00;99.90;;;;;;5071900;28;20177;-50
2023/09/26 07:01:18;;;;;;;7.63;6.50;;;13.00;99.90;;;;;;5071789;28;20172;-51
2023/09/26 07:03:45;;;;;;;11.73;7.07;;;13.20;99.90;;;;;;5071820;28;20172;-50
2023/09/26 07:06:12;;;;;;;12.98;6.40;;;13.30;99.90;;;;;;5071695;28;20215;-50
2023/09/26 07:08:39;;;;;;;10.23;6.78;;;13.40;99.90;;;;;;5071722;28;20215;-50
2023/09/26 07:11:06;;;;;;;10.05;6.75;;;13.50;99.90;;;;;;5071686;28;20170;-50
2023/09/26 07:13:34;;;;;;;9.02;6.57;;;13.70;99.90;;;;;;5071697;28;20169;-50
2023/09/26 07:16:03;;;;;;;7.03;6.32;;;13.80;99.90;;;;;;5071858;28;20554;-50
2023/09/26 07:18:30;;;;;;;9.30;6.40;;;13.90;99.90;;;;;;5081087;28;20620;-51
2023/09/26 07:20:59;;;;;;;10.93;6.90;;;13.90;99.90;;;;;;5090754;28;20218;-50
2023/09/26 07:23:25;;;;;;;9.93;6.47;;;;;;;;;;5090680;28;20169;-51
2023/09/26 07:25:51;;;;;;;8.60;6.53;;;14.20;99.90;;;;;;5090145;28;20254;-50
2023/09/26 07:28:17;;;;;;;9.27;6.95;;;;;;;;;;5090023;28;20621;-50
2023/09/26 07:30:44;;;;;;;12.75;6.28;;;14.50;99.90;;;;;;5090035;28;20184;-50
2023/09/26 07:33:10;;;;;;;8.15;6.05;;;14.60;99.90;;;;;;5090308;28;20169;-50
2023/09/26 07:35:35;;;;;;;9.20;6.30;;;14.70;99.90;;;;;;5089973;28;20248;-50
2023/09/26 07:38:01;;;;;;;8.38;5.78;;;14.80;99.90;;;;;;5090015;28;20165;-50
2023/09/26 07:40:27;;;;;;;10.90;6.18;;;14.90;99.90;;;;;;5090306;28;20252;-50
2023/09/26 07:42:52;;;;;;;8.32;6.25;;;15.00;99.90;;;;;;5089888;28;20563;-49
2023/09/26 07:45:18;;;;;;;9.57;6.20;;;15.10;99.90;;;;;;5089850;28;20229;-49
2023/09/26 07:47:44;;;;;;;11.10;6.30;;;15.20;99.90;;;;;;5089779;28;20510;-50
2023/09/26 07:50:10;;;;;;;11.38;6.15;;;;;;;;;;5090097;28;20181;-51
2023/09/26 07:52:37;;;;;;;8.98;6.38;;;;;;;;;;5089850;28;20157;-51
2023/09/26 07:55:02;;;;;;;9.32;6.07;;;15.40;99.90;;;;;;5090256;28;20293;-50
2023/09/26 07:57:28;;;;;;;7.43;5.90;;;;;;;;;;5090102;28;20196;-50
2023/09/26 07:59:54;;;;;;;8.10;5.55;;;15.70;99.90;;;;;;5071574;28;20226;-50
2023/09/26 08:02:20;;;;;;;10.07;6.03;;;;;;;;;;5089684;28;20177;-51
2023/09/26 08:04:46;;;;;;;6.78;5.18;;;;;;;;;;5089679;28;20161;-51
2023/09/26 08:07:12;;;;;;;11.50;5.88;;;16.10;99.90;;;;;;5090594;28;20671;-50
2023/09/26 08:09:38;;;;;;;8.73;5.18;;;16.30;99.90;;;;;;5093751;28;20285;-51
2023/09/26 08:12:04;;;;;;;6.55;5.30;;;;;;;;;;5093682;28;20633;-51
2023/09/26 08:14:30;;;;;;;10.07;5.45;;;16.50;99.90;;;;;;5093662;28;20177;-50
2023/09/26 08:16:56;;;;;;;9.43;5.70;;;;;;;;;;5094029;28;20229;-50
2023/09/26 08:19:21;;;;;;;8.23;6.07;;;16.70;99.90;;;;;;5093495;28;20158;-51
2023/09/26 08:21:47;;;;;;;10.07;6.03;;;;;;;;;;5093644;28;20665;-51
2023/09/26 08:24:13;;;;;;;8.98;5.85;;;16.90;99.90;;;;;;5093491;28;20169;-50
2023/09/26 08:26:39;;;;;;;8.75;6.50;;;;;;;;;;5093292;28;20227;-51
2023/09/26 08:29:05;;;;;;;7.85;6.00;;;16.90;99.90;;;;;;5093336;28;20192;-54
2023/09/26 08:31:31;;;;;;;8.43;6.20;;;16.90;99.90;;;;;;5093337;28;20174;-50
2023/09/26 08:33:57;;;;;;;9.70;5.63;;;17.10;99.90;;;;;;5093669;28;20173;-49
2023/09/26 08:36:23;;;;;;;8.80;5.97;;;17.10;99.90;;;;;;5093540;28;20168;-50
2023/09/26 08:38:51;;;;;;;7.47;5.82;;;17.30;99.90;;;;;;5093755;28;20161;-51
2023/09/26 08:41:18;;;;;;;10.07;5.93;;;17.30;99.90;;;;;;5094708;28;20169;-50
2023/09/26 08:43:44;;;;;;;6.03;4.80;;;17.40;99.90;;;;;;5094957;28;20215;-50
2023/09/26 08:46:10;;;;;;;7.18;5.05;;;17.50;99.90;;;;;;5094604;28;20229;-51
2023/09/26 08:48:37;;;;;;;9.93;4.97;;;17.50;99.90;;;;;;5094642;28;20170;-51
2023/09/26 08:51:03;;;;;;;8.70;5.30;;;17.50;99.90;;;;;;5094549;28;20166;-51
2023/09/26 08:53:29;;;;;;;7.32;5.20;;;17.70;99.90;;;;;;5095299;28;20168;-51
2023/09/26 08:55:55;;;;;;;7.28;5.38;;;17.80;99.90;;;;;;5094956;28;20162;-51
2023/09/26 08:58:21;;;;;;;7.05;5.00;;;17.90;99.90;;;;;;5094513;28;20577;-51
2023/09/26 09:00:47;;;;;;;5.82;5.00;;;18.00;99.90;;;;;;5094395;28;20201;-50
2023/09/26 09:03:13;;;;;;;6.32;4.93;;;18.10;99.90;;;;;;5094420;28;20169;-51
2023/09/26 09:05:40;;;;;;;8.23;5.40;;;18.20;99.90;;;;;;5094272;28;20199;-50
2023/09/26 09:08:07;;;;;;;7.82;5.65;;;18.30;99.90;;;;;;5094561;28;20188;-50
2023/09/26 09:10:51;;;;;;;9.40;5.82;;;18.20;99.90;;;;;;5094269;28;20161;-51
2023/09/26 09:13:32;;;;;;;10.40;5.60;;;18.40;99.90;;;;;;5094368;28;20264;-50
2023/09/26 09:16:12;;;;;;;7.30;5.25;;;18.40;99.90;;;;;;5094879;28;20168;-51
2023/09/26 09:18:43;;;;;;;9.40;5.80;;;18.60;99.90;;;;;;5093605;28;20226;-51
2023/09/26 09:21:25;;;;;;;8.65;5.57;;;18.60;99.90;;;;;;5094133;28;20165;-51
2023/09/26 09:23:52;;;;;;;5.63;5.05;;;18.70;99.90;;;;;;5094210;28;20237;-50
2023/09/26 09:26:19;;;;;;;7.25;5.63;;;18.70;99.90;;;;;;5093828;28;20200;-50
2023/09/26 09:28:45;;;;;;;10.63;5.32;;;19.00;99.90;;;;;;5094104;28;20531;-50
2023/09/26 09:31:14;;;;;;;7.70;5.65;;;19.00;99.90;;;;;;5093871;28;20177;-50
2023/09/26 09:33:44;;;;;;;14.77;5.65;;;19.00;99.90;;;;;;5093966;28;20170;-50
2023/09/26 09:36:11;;;;;;;5.75;5.05;;;19.20;99.90;;;;;;5094018;28;20177;-50
2023/09/26 09:38:37;;;;;;;7.80;5.30;;;19.30;99.90;;;;;;5093659;28;20707;-50
2023/09/26 09:41:03;;;;;;;8.25;5.45;;;19.30;99.90;;;;;;5093610;28;20310;-50
2023/09/26 09:43:29;;;;;;;10.70;5.38;;;;;;;;;;5093644;28;20283;-50
2023/09/26 09:45:57;;;;;;;6.13;4.65;;;19.60;99.90;;;;;;5093766;28;20639;-51
2023/09/26 09:48:25;;;;;;;7.20;5.28;;;19.60;99.90;;;;;;5093790;28;20208;-50
2023/09/26 09:50:54;;;;;;;16.33;6.97;;;19.60;99.90;;;;;;5093416;28;20176;-50
2023/09/26 09:53:21;;;;;;;10.35;6.28;;;19.60;99.90;;;;;;5075396;28;20173;-50
2023/09/26 09:55:49;;;;;;;12.02;6.25;;;19.80;99.90;;;;;;5093419;28;20161;-50
2023/09/26 09:58:17;;;;;;;9.50;5.80;;;19.80;99.90;;;;;;5093558;28;20184;-50
2023/09/26 10:00:43;;;;;;;10.82;5.07;;;19.90;99.90;;;;;;5093302;28;20157;-50
2023/09/26 10:03:11;;;;;;;8.43;5.05;;;20.00;99.90;;;;;;5093276;28;20609;-50
2023/09/26 10:05:38;;;;;;;7.55;4.57;;;20.00;99.90;;;;;;5093140;28;20552;-50
2023/09/26 10:08:06;;;;;;;10.80;4.75;;;20.20;99.90;;;;;;5093196;28;20173;-50
2023/09/26 10:10:33;;;;;;;10.60;4.60;;;20.20;99.90;;;;;;5093422;28;20268;-50
2023/09/26 10:12:59;;;;;;;10.30;4.93;;;;;;;;;;5093515;28;20161;-50
2023/09/26 10:15:25;;;;;;;8.85;4.47;;;20.40;99.90;;;;;;5093450;28;20162;-50
2023/09/26 10:17:50;;;;;;;7.68;4.63;;;20.40;99.90;;;;;;5092839;28;20581;-50
2023/09/26 10:20:17;;;;;;;11.57;5.15;;;20.60;99.90;;;;;;5092871;28;20166;-50
2023/09/26 10:22:44;;;;;;;11.52;5.45;;;20.60;99.90;;;;;;5092842;28;20166;-51
2023/09/26 10:25:19;;;;;;;5.32;3.95;;;20.70;99.90;;;;;;5093032;28;20252;-50
2023/09/26 10:27:50;;;;;;;7.40;4.90;;;20.80;99.90;;;;;;5093015;28;20627;-50
2023/09/26 10:30:18;;;;;;;12.25;3.83;;;20.90;99.90;;;;;;5092089;28;20169;-50
2023/09/26 10:32:44;;;;;;;7.68;4.97;;;21.00;99.90;;;;;;5092630;28;20615;-51
2023/09/26 10:35:13;;;;;;;6.68;3.90;;;21.20;99.90;;;;;;5092575;28;20161;-50
2023/09/26 10:37:45;;;;;;;9.68;4.95;;;21.30;99.90;;;;;;5092933;28;20513;-50
2023/09/26 10:40:15;;;;;;;7.53;5.10;;;21.30;99.90;;;;;;5092498;28;20169;-50
2023/09/26 10:42:45;;;;;;;6.13;4.57;;;21.40;99.90;;;;;;5092464;28;20185;-50
2023/09/26 10:45:11;;;;;;;7.57;4.40;;;21.40;99.90;;;;;;5074067;28;20253;-50
2023/09/26 10:47:40;;;;;;;5.90;4.18;;;21.50;99.90;;;;;;5092397;28;20250;-50
2023/09/26 10:50:14;;;;;;;6.45;3.97;;;21.80;99.90;;;;;;5092615;28;20169;-51
2023/09/26 10:52:49;;;;;;;5.10;3.65;;;21.50;99.90;;;;;;5092744;28;20176;-51
2023/09/26 10:55:16;;;;;;;11.15;4.18;;;21.20;99.90;;;;;;5092283;28;20162;-52
2023/09/26 10:57:43;;;;;;;8.68;4.22;;;21.40;99.90;;;;;;5074271;28;20169;-52
2023/09/26 11:00:11;;;;;;;7.20;4.07;;;21.60;99.90;;;;;;5092659;28;20219;-51
2023/09/26 11:02:36;;;;;;;6.82;3.63;;;21.90;99.90;;;;;;5092332;28;20165;-52
2023/09/26 11:05:10;;;;;;;5.85;4.15;;;21.80;99.90;;;;;;5092242;28;20268;-52
2023/09/26 11:07:37;;;;;;;8.00;3.97;;;21.80;99.90;;;;;;5092085;28;20184;-51
2023/09/26 11:10:03;;;;;;;7.82;3.63;;;21.90;99.90;;;;;;5092412;28;20249;-51
2023/09/26 11:12:30;;;;;;;10.60;3.97;;;22.00;99.90;;;;;;5092306;28;20170;-50
2023/09/26 11:14:56;;;;;;;6.43;3.25;;;22.10;99.90;;;;;;5092680;28;20173;-51
2023/09/26 11:17:23;;;;;;;6.43;4.28;;;22.00;99.90;;;;;;5092223;28;20188;-51
2023/09/26 11:19:50;;;;;;;7.22;3.83;;;22.00;99.90;;;;;;5091992;28;20162;-52
2023/09/26 11:22:16;;;;;;;6.68;4.05;;;22.10;99.90;;;;;;5091896;28;20200;-51
2023/09/26 11:24:42;;;;;;;6.13;3.15;;;22.20;99.90;;;;;;5091869;28;20201;-52
2023/09/26 11:27:08;;;;;;;4.20;3.75;;;22.20;99.90;;;;;;5091684;28;20234;-49
2023/09/26 11:29:35;;;;;;;8.68;3.83;;;22.40;99.90;;;;;;5073757;28;20165;-52
2023/09/26 11:32:03;;;;;;;7.32;3.45;;;22.40;99.90;;;;;;5091693;28;20214;-51
2023/09/26 11:34:29;;;;;;;9.82;3.45;;;22.60;99.90;;;;;;5092075;28;20176;-52
2023/09/26 11:36:55;;;;;;;7.30;3.88;;;22.60;99.90;;;;;;5092176;28;20203;-52
2023/09/26 11:39:22;;;;;;;8.25;4.68;;;22.70;99.90;;;;;;5091846;28;20176;-52
2023/09/26 11:42:08;;;;;;;6.50;3.00;;;22.60;99.90;;;;;;5091697;28;20173;-50
2023/09/26 11:44:35;;;;;;;7.80;3.58;;;22.80;99.90;;;;;;5091651;28;20157;-50
2023/09/26 11:47:03;;;;;;;4.50;3.40;;;22.80;99.90;;;;;;5091310;28;20363;-50
2023/09/26 11:49:30;;;;;;;9.95;3.28;;;;;;;;;;5091720;28;20173;-50
2023/09/26 11:51:56;;;;;;;4.65;2.90;;;22.90;99.90;;;;;;5092127;28;20243;-50
2023/09/26 11:54:22;;;;;;;5.68;3.10;;;;;;;;;;5091438;28;20668;-50
2023/09/26 11:56:48;;;;;;;4.47;3.47;;;22.90;99.90;;;;;;5091406;28;20248;-50
2023/09/26 11:59:15;;;;;;;3.85;2.60;;;22.90;99.90;;;;;;5091622;28;20173;-50
2023/09/26 12:01:43;;;;;;;2.90;2.60;;;22.90;99.90;;;;;;5091366;28;20599;-50
2023/09/26 12:04:13;;;;;;;4.25;2.92;;;23.00;99.90;;;;;;5091563;28;20204;-50
2023/09/26 12:06:40;;;;;;;7.13;3.83;;;23.00;99.90;;;;;;5091204;28;20205;-50
2023/09/26 12:09:19;;;;;;;9.48;3.72;;;23.00;99.90;;;;;;5091636;28;20173;-50
2023/09/26 12:11:49;;;;;;;3.45;2.70;;;23.10;99.90;;;;;;5091145;28;20230;-50
2023/09/26 12:14:16;;;;;;;5.40;2.65;;;23.10;99.90;;;;;;5091568;28;20196;-50
2023/09/26 12:16:49;;;;;;;5.18;3.22;;;23.00;99.90;;;;;;5091432;28;20222;-50
2023/09/26 12:19:15;;;;;;;5.22;2.15;;;23.10;99.90;;;;;;5091242;28;20168;-50
2023/09/26 12:21:41;;;;;;;4.95;2.88;;;23.10;99.90;;;;;;5091191;28;20173;-50
2023/09/26 12:24:07;;;;;;;4.43;3.00;;;23.10;99.90;;;;;;5091425;28;20161;-50
2023/09/26 12:26:32;;;;;;;4.53;2.90;;;23.30;99.90;;;;;;5091057;28;20258;-51
2023/09/26 12:28:58;;;;;;;5.20;2.67;;;;;;;;;;5091537;28;20185;-51
2023/09/26 12:31:24;;;;;;;5.30;2.90;;;23.40;99.90;;;;;;5091521;28;20177;-50
2023/09/26 12:33:49;;;;;;;6.03;3.67;;;23.50;99.90;;;;;;5091012;28;20303;-50
2023/09/26 12:36:15;;;;;;;3.17;2.33;;;23.40;99.90;;;;;;5091017;28;20161;-50
2023/09/26 12:38:41;;;;;;;4.80;2.35;;;23.30;99.90;;;;;;5091317;28;20620;-50
2023/09/26 12:41:07;;;;;;;5.35;2.42;;;23.50;99.90;;;;;;5091317;28;20165;-50
2023/09/26 12:43:33;;;;;;;3.38;2.30;;;23.50;99.90;;;;;;5091066;28;20663;-50
2023/09/26 12:45:59;;;;;;;5.97;2.90;;;;;;;;;;5090903;28;20248;-50
2023/09/26 12:48:24;;;;;;;4.88;2.65;;;23.80;99.90;;;;;;5091324;28;20196;-50
2023/09/26 12:50:50;;;;;;;8.43;2.90;;;23.90;99.90;;;;;;5091165;28;20176;-50